sensor_id;sensor_type;location;lat;lon;timestamp;P1;durP1;ratioP1;P2;durP2;ratioP2
21032;SDS011;10675;47.976;7.824;2022-12-18T00:01:25;14.20;;;5.77;;
21032;SDS011;10675;47.976;7.824;2022-12-18T00:03:56;15.93;;;5.27;;
21032;SDS011;10675;47.976;7.824;2022-12-18T00:06:25;10.57;;;5.93;;
21032;SDS011;10675;47.976;7.824;2022-12-18T00:08:52;12.03;;;6.30;;
21032;SDS011;10675;47.976;7.824;2022-12-18T00:11:20;16.70;;;5.77;;
21032;SDS011;10675;47.976;7.824;2022-12-18T00:13:47;14.80;;;6.10;;
21032;SDS011;10675;47.976;7.824;2022-12-18T00:16:18;13.10;;;4.57;;
21032;SDS011;10675;47.976;7.824;2022-12-18T00:18:45;14.13;;;5.97;;
21032;SDS011;10675;47.976;7.824;2022-12-18T00:21:12;10.70;;;4.50;;
21032;SDS011;10675;47.976;7.824;2022-12-18T00:23:39;9.07;;;4.03;;
21032;SDS011;10675;47.976;7.824;2022-12-18T00:26:07;10.83;;;4.97;;
21032;SDS011;10675;47.976;7.824;2022-12-18T00:28:35;6.77;;;4.07;;
21032;SDS011;10675;47.976;7.824;2022-12-18T00:31:05;7.07;;;4.50;;
21032;SDS011;10675;47.976;7.824;2022-12-18T00:33:32;10.43;;;4.63;;
21032;SDS011;10675;47.976;7.824;2022-12-18T00:36:01;7.50;;;3.70;;
21032;SDS011;10675;47.976;7.824;2022-12-18T00:38:27;6.87;;;4.40;;
21032;SDS011;10675;47.976;7.824;2022-12-18T00:40:53;8.70;;;5.13;;
21032;SDS011;10675;47.976;7.824;2022-12-18T00:43:19;8.60;;;4.53;;
21032;SDS011;10675;47.976;7.824;2022-12-18T00:45:44;8.97;;;4.77;;
21032;SDS011;10675;47.976;7.824;2022-12-18T00:48:10;5.60;;;3.63;;
21032;SDS011;10675;47.976;7.824;2022-12-18T00:50:36;9.77;;;4.80;;
21032;SDS011;10675;47.976;7.824;2022-12-18T00:53:01;8.23;;;5.23;;
21032;SDS011;10675;47.976;7.824;2022-12-18T00:55:27;15.00;;;5.83;;
21032;SDS011;10675;47.976;7.824;2022-12-18T00:57:52;11.57;;;5.13;;
21032;SDS011;10675;47.976;7.824;2022-12-18T01:00:18;9.83;;;5.07;;
21032;SDS011;10675;47.976;7.824;2022-12-18T01:02:44;11.83;;;5.57;;
21032;SDS011;10675;47.976;7.824;2022-12-18T01:05:10;8.97;;;5.00;;
21032;SDS011;10675;47.976;7.824;2022-12-18T01:07:37;12.00;;;4.80;;
21032;SDS011;10675;47.976;7.824;2022-12-18T01:10:03;11.27;;;4.37;;
21032;SDS011;10675;47.976;7.824;2022-12-18T01:12:30;10.70;;;5.10;;
21032;SDS011;10675;47.976;7.824;2022-12-18T01:14:56;7.93;;;4.20;;
21032;SDS011;10675;47.976;7.824;2022-12-18T01:17:21;10.20;;;4.00;;
21032;SDS011;10675;47.976;7.824;2022-12-18T01:19:47;8.03;;;5.63;;
21032;SDS011;10675;47.976;7.824;2022-12-18T01:22:13;8.03;;;3.87;;
21032;SDS011;10675;47.976;7.824;2022-12-18T01:24:38;14.23;;;5.33;;
21032;SDS011;10675;47.976;7.824;2022-12-18T01:27:04;9.87;;;5.80;;
21032;SDS011;10675;47.976;7.824;2022-12-18T01:29:29;11.53;;;5.40;;
21032;SDS011;10675;47.976;7.824;2022-12-18T01:31:55;7.67;;;4.30;;
21032;SDS011;10675;47.976;7.824;2022-12-18T01:34:22;8.40;;;4.77;;
21032;SDS011;10675;47.976;7.824;2022-12-18T01:36:48;8.13;;;4.90;;
21032;SDS011;10675;47.976;7.824;2022-12-18T01:39:14;10.83;;;6.43;;
21032;SDS011;10675;47.976;7.824;2022-12-18T01:41:40;11.37;;;5.30;;
21032;SDS011;10675;47.976;7.824;2022-12-18T01:50:42;9.53;;;4.43;;
21032;SDS011;10675;47.976;7.824;2022-12-18T01:55:44;8.03;;;4.17;;
21032;SDS011;10675;47.976;7.824;2022-12-18T01:58:19;12.10;;;5.43;;
21032;SDS011;10675;47.976;7.824;2022-12-18T02:00:48;10.43;;;5.33;;
21032;SDS011;10675;47.976;7.824;2022-12-18T02:03:13;10.87;;;5.47;;
21032;SDS011;10675;47.976;7.824;2022-12-18T02:05:47;11.73;;;6.23;;
21032;SDS011;10675;47.976;7.824;2022-12-18T02:08:58;7.43;;;5.10;;
21032;SDS011;10675;47.976;7.824;2022-12-18T02:11:28;13.83;;;5.40;;
21032;SDS011;10675;47.976;7.824;2022-12-18T02:17:01;13.60;;;5.47;;
21032;SDS011;10675;47.976;7.824;2022-12-18T02:27:41;11.20;;;5.27;;
21032;SDS011;10675;47.976;7.824;2022-12-18T02:30:10;15.23;;;5.33;;
21032;SDS011;10675;47.976;7.824;2022-12-18T02:32:40;12.97;;;4.93;;
21032;SDS011;10675;47.976;7.824;2022-12-18T02:35:11;11.73;;;5.20;;
21032;SDS011;10675;47.976;7.824;2022-12-18T02:37:42;12.27;;;5.77;;
21032;SDS011;10675;47.976;7.824;2022-12-18T02:40:09;13.83;;;4.60;;
21032;SDS011;10675;47.976;7.824;2022-12-18T02:42:37;5.73;;;3.83;;
21032;SDS011;10675;47.976;7.824;2022-12-18T02:45:02;10.63;;;5.27;;
21032;SDS011;10675;47.976;7.824;2022-12-18T02:47:30;7.30;;;5.17;;
21032;SDS011;10675;47.976;7.824;2022-12-18T02:50:05;22.30;;;6.27;;
21032;SDS011;10675;47.976;7.824;2022-12-18T02:52:56;10.40;;;4.27;;
21032;SDS011;10675;47.976;7.824;2022-12-18T02:55:56;9.50;;;4.43;;
21032;SDS011;10675;47.976;7.824;2022-12-18T02:58:47;13.17;;;4.63;;
21032;SDS011;10675;47.976;7.824;2022-12-18T03:04:40;7.43;;;5.00;;
21032;SDS011;10675;47.976;7.824;2022-12-18T03:06:53;9.00;;;4.63;;
21032;SDS011;10675;47.976;7.824;2022-12-18T03:09:25;8.83;;;5.47;;
21032;SDS011;10675;47.976;7.824;2022-12-18T03:11:58;6.90;;;4.03;;
21032;SDS011;10675;47.976;7.824;2022-12-18T03:14:49;11.63;;;5.83;;
21032;SDS011;10675;47.976;7.824;2022-12-18T03:17:25;13.13;;;5.73;;
21032;SDS011;10675;47.976;7.824;2022-12-18T03:19:52;9.33;;;5.27;;
21032;SDS011;10675;47.976;7.824;2022-12-18T03:22:22;8.87;;;5.13;;
21032;SDS011;10675;47.976;7.824;2022-12-18T03:24:51;13.50;;;4.70;;
21032;SDS011;10675;47.976;7.824;2022-12-18T03:27:19;16.47;;;5.47;;
21032;SDS011;10675;47.976;7.824;2022-12-18T03:29:49;6.80;;;4.33;;
21032;SDS011;10675;47.976;7.824;2022-12-18T03:35:21;11.20;;;5.13;;
21032;SDS011;10675;47.976;7.824;2022-12-18T03:37:56;10.47;;;6.20;;
21032;SDS011;10675;47.976;7.824;2022-12-18T03:40:22;11.07;;;4.60;;
21032;SDS011;10675;47.976;7.824;2022-12-18T03:43:03;7.33;;;3.53;;
21032;SDS011;10675;47.976;7.824;2022-12-18T03:45:53;7.53;;;4.13;;
21032;SDS011;10675;47.976;7.824;2022-12-18T03:48:59;10.23;;;5.30;;
21032;SDS011;10675;47.976;7.824;2022-12-18T03:51:28;7.13;;;4.70;;
21032;SDS011;10675;47.976;7.824;2022-12-18T03:54:06;5.93;;;3.00;;
21032;SDS011;10675;47.976;7.824;2022-12-18T03:56:39;5.50;;;3.43;;
21032;SDS011;10675;47.976;7.824;2022-12-18T03:59:08;8.43;;;4.13;;
21032;SDS011;10675;47.976;7.824;2022-12-18T04:01:38;8.03;;;3.83;;
21032;SDS011;10675;47.976;7.824;2022-12-18T04:04:07;5.07;;;2.63;;
21032;SDS011;10675;47.976;7.824;2022-12-18T04:06:34;13.83;;;5.10;;
21032;SDS011;10675;47.976;7.824;2022-12-18T04:09:01;6.63;;;4.03;;
21032;SDS011;10675;47.976;7.824;2022-12-18T04:11:27;9.73;;;4.73;;
21032;SDS011;10675;47.976;7.824;2022-12-18T04:13:56;5.17;;;3.67;;
21032;SDS011;10675;47.976;7.824;2022-12-18T04:16:23;11.40;;;4.80;;
21032;SDS011;10675;47.976;7.824;2022-12-18T04:18:50;8.00;;;4.30;;
21032;SDS011;10675;47.976;7.824;2022-12-18T04:21:15;11.73;;;4.37;;
21032;SDS011;10675;47.976;7.824;2022-12-18T04:23:41;11.23;;;4.77;;
21032;SDS011;10675;47.976;7.824;2022-12-18T04:26:06;11.83;;;5.20;;
21032;SDS011;10675;47.976;7.824;2022-12-18T04:28:32;5.83;;;4.40;;
21032;SDS011;10675;47.976;7.824;2022-12-18T04:30:57;8.90;;;4.73;;
21032;SDS011;10675;47.976;7.824;2022-12-18T04:33:23;9.23;;;4.60;;
21032;SDS011;10675;47.976;7.824;2022-12-18T04:35:48;6.47;;;3.53;;
21032;SDS011;10675;47.976;7.824;2022-12-18T04:38:14;5.70;;;4.20;;
21032;SDS011;10675;47.976;7.824;2022-12-18T04:40:40;9.77;;;4.83;;
21032;SDS011;10675;47.976;7.824;2022-12-18T04:43:06;5.27;;;3.60;;
21032;SDS011;10675;47.976;7.824;2022-12-18T04:45:31;7.10;;;3.60;;
21032;SDS011;10675;47.976;7.824;2022-12-18T04:47:57;9.87;;;5.20;;
21032;SDS011;10675;47.976;7.824;2022-12-18T04:50:24;8.43;;;4.43;;
21032;SDS011;10675;47.976;7.824;2022-12-18T04:52:49;7.13;;;3.93;;
21032;SDS011;10675;47.976;7.824;2022-12-18T04:55:15;4.57;;;3.40;;
21032;SDS011;10675;47.976;7.824;2022-12-18T04:57:40;6.13;;;3.07;;
21032;SDS011;10675;47.976;7.824;2022-12-18T05:00:07;7.33;;;4.17;;
21032;SDS011;10675;47.976;7.824;2022-12-18T05:02:33;4.93;;;3.47;;
21032;SDS011;10675;47.976;7.824;2022-12-18T05:04:59;5.53;;;3.03;;
21032;SDS011;10675;47.976;7.824;2022-12-18T05:07:25;6.57;;;4.07;;
21032;SDS011;10675;47.976;7.824;2022-12-18T05:09:50;5.27;;;3.50;;
21032;SDS011;10675;47.976;7.824;2022-12-18T05:12:16;6.57;;;3.67;;
21032;SDS011;10675;47.976;7.824;2022-12-18T05:14:41;4.50;;;3.70;;
21032;SDS011;10675;47.976;7.824;2022-12-18T05:17:07;3.83;;;3.17;;
21032;SDS011;10675;47.976;7.824;2022-12-18T05:19:33;14.00;;;3.17;;
21032;SDS011;10675;47.976;7.824;2022-12-18T05:21:58;7.80;;;3.10;;
21032;SDS011;10675;47.976;7.824;2022-12-18T05:24:24;5.40;;;3.27;;
21032;SDS011;10675;47.976;7.824;2022-12-18T05:26:49;9.87;;;2.97;;
21032;SDS011;10675;47.976;7.824;2022-12-18T05:29:15;8.67;;;2.97;;
21032;SDS011;10675;47.976;7.824;2022-12-18T05:31:41;4.03;;;3.17;;
21032;SDS011;10675;47.976;7.824;2022-12-18T05:34:06;5.87;;;4.47;;
21032;SDS011;10675;47.976;7.824;2022-12-18T05:36:32;5.87;;;2.77;;
21032;SDS011;10675;47.976;7.824;2022-12-18T05:38:57;8.53;;;3.30;;
21032;SDS011;10675;47.976;7.824;2022-12-18T05:41:25;6.70;;;3.53;;
21032;SDS011;10675;47.976;7.824;2022-12-18T05:43:50;17.97;;;6.07;;
21032;SDS011;10675;47.976;7.824;2022-12-18T05:46:16;8.17;;;5.50;;
21032;SDS011;10675;47.976;7.824;2022-12-18T05:48:43;10.20;;;3.80;;
21032;SDS011;10675;47.976;7.824;2022-12-18T05:51:11;10.50;;;4.77;;
21032;SDS011;10675;47.976;7.824;2022-12-18T05:53:39;9.67;;;4.03;;
21032;SDS011;10675;47.976;7.824;2022-12-18T05:56:06;13.27;;;5.73;;
21032;SDS011;10675;47.976;7.824;2022-12-18T05:58:33;8.87;;;4.50;;
21032;SDS011;10675;47.976;7.824;2022-12-18T06:01:33;14.23;;;6.60;;
21032;SDS011;10675;47.976;7.824;2022-12-18T06:03:51;8.03;;;3.93;;
21032;SDS011;10675;47.976;7.824;2022-12-18T06:06:19;11.13;;;6.30;;
21032;SDS011;10675;47.976;7.824;2022-12-18T06:08:49;5.67;;;3.77;;
21032;SDS011;10675;47.976;7.824;2022-12-18T06:11:17;9.67;;;5.00;;
21032;SDS011;10675;47.976;7.824;2022-12-18T06:13:44;4.60;;;3.30;;
21032;SDS011;10675;47.976;7.824;2022-12-18T06:16:09;13.07;;;4.33;;
21032;SDS011;10675;47.976;7.824;2022-12-18T06:18:35;10.67;;;4.10;;
21032;SDS011;10675;47.976;7.824;2022-12-18T06:21:02;7.13;;;4.87;;
21032;SDS011;10675;47.976;7.824;2022-12-18T06:23:27;7.23;;;4.17;;
21032;SDS011;10675;47.976;7.824;2022-12-18T06:25:53;6.30;;;3.17;;
21032;SDS011;10675;47.976;7.824;2022-12-18T06:28:18;8.10;;;3.80;;
21032;SDS011;10675;47.976;7.824;2022-12-18T06:30:45;7.93;;;5.50;;
21032;SDS011;10675;47.976;7.824;2022-12-18T06:33:13;7.00;;;4.07;;
21032;SDS011;10675;47.976;7.824;2022-12-18T06:35:38;6.00;;;3.67;;
21032;SDS011;10675;47.976;7.824;2022-12-18T06:38:04;3.87;;;3.00;;
21032;SDS011;10675;47.976;7.824;2022-12-18T06:40:29;5.10;;;2.83;;
21032;SDS011;10675;47.976;7.824;2022-12-18T06:42:55;7.23;;;3.27;;
21032;SDS011;10675;47.976;7.824;2022-12-18T06:45:20;12.33;;;3.73;;
21032;SDS011;10675;47.976;7.824;2022-12-18T06:47:46;4.23;;;2.57;;
21032;SDS011;10675;47.976;7.824;2022-12-18T06:50:12;7.87;;;3.80;;
21032;SDS011;10675;47.976;7.824;2022-12-18T06:52:38;4.73;;;2.43;;
21032;SDS011;10675;47.976;7.824;2022-12-18T06:55:05;6.43;;;4.17;;
21032;SDS011;10675;47.976;7.824;2022-12-18T06:57:34;9.77;;;3.73;;
21032;SDS011;10675;47.976;7.824;2022-12-18T07:00:00;11.90;;;3.47;;
21032;SDS011;10675;47.976;7.824;2022-12-18T07:02:25;6.03;;;3.40;;
21032;SDS011;10675;47.976;7.824;2022-12-18T07:04:51;4.03;;;3.13;;
21032;SDS011;10675;47.976;7.824;2022-12-18T07:07:16;3.70;;;2.83;;
21032;SDS011;10675;47.976;7.824;2022-12-18T07:09:42;4.73;;;3.87;;
21032;SDS011;10675;47.976;7.824;2022-12-18T07:12:08;5.10;;;1.93;;
21032;SDS011;10675;47.976;7.824;2022-12-18T07:14:33;4.13;;;2.53;;
21032;SDS011;10675;47.976;7.824;2022-12-18T07:16:59;4.67;;;2.97;;
21032;SDS011;10675;47.976;7.824;2022-12-18T07:19:24;2.00;;;1.33;;
21032;SDS011;10675;47.976;7.824;2022-12-18T07:21:50;6.30;;;3.00;;
21032;SDS011;10675;47.976;7.824;2022-12-18T07:24:16;4.40;;;2.47;;
21032;SDS011;10675;47.976;7.824;2022-12-18T07:26:42;8.43;;;3.43;;
21032;SDS011;10675;47.976;7.824;2022-12-18T07:29:10;3.77;;;2.03;;
21032;SDS011;10675;47.976;7.824;2022-12-18T07:31:35;5.77;;;3.20;;
21032;SDS011;10675;47.976;7.824;2022-12-18T07:34:01;5.23;;;2.93;;
21032;SDS011;10675;47.976;7.824;2022-12-18T07:36:26;6.30;;;3.60;;
21032;SDS011;10675;47.976;7.824;2022-12-18T07:38:52;16.23;;;5.97;;
21032;SDS011;10675;47.976;7.824;2022-12-18T07:41:18;13.80;;;6.10;;
21032;SDS011;10675;47.976;7.824;2022-12-18T07:43:44;16.97;;;5.37;;
21032;SDS011;10675;47.976;7.824;2022-12-18T07:46:09;13.87;;;6.67;;
21032;SDS011;10675;47.976;7.824;2022-12-18T07:48:38;22.17;;;6.93;;
21032;SDS011;10675;47.976;7.824;2022-12-18T07:51:05;19.27;;;7.53;;
21032;SDS011;10675;47.976;7.824;2022-12-18T07:53:32;15.47;;;6.60;;
21032;SDS011;10675;47.976;7.824;2022-12-18T07:56:08;19.63;;;7.53;;
21032;SDS011;10675;47.976;7.824;2022-12-18T07:58:35;10.17;;;4.03;;
21032;SDS011;10675;47.976;7.824;2022-12-18T08:01:05;11.87;;;6.17;;
21032;SDS011;10675;47.976;7.824;2022-12-18T08:03:32;9.20;;;5.13;;
21032;SDS011;10675;47.976;7.824;2022-12-18T08:05:59;18.27;;;6.70;;
21032;SDS011;10675;47.976;7.824;2022-12-18T08:08:26;7.93;;;5.53;;
21032;SDS011;10675;47.976;7.824;2022-12-18T08:10:52;10.67;;;4.67;;
21032;SDS011;10675;47.976;7.824;2022-12-18T08:13:17;13.33;;;4.90;;
21032;SDS011;10675;47.976;7.824;2022-12-18T08:15:43;5.10;;;4.30;;
21032;SDS011;10675;47.976;7.824;2022-12-18T08:18:08;8.50;;;4.57;;
21032;SDS011;10675;47.976;7.824;2022-12-18T08:20:34;6.17;;;3.73;;
21032;SDS011;10675;47.976;7.824;2022-12-18T08:22:59;6.10;;;3.90;;
21032;SDS011;10675;47.976;7.824;2022-12-18T08:25:25;6.50;;;3.93;;
21032;SDS011;10675;47.976;7.824;2022-12-18T08:27:50;4.47;;;3.37;;
21032;SDS011;10675;47.976;7.824;2022-12-18T08:30:16;6.80;;;4.67;;
21032;SDS011;10675;47.976;7.824;2022-12-18T08:32:41;7.80;;;4.87;;
21032;SDS011;10675;47.976;7.824;2022-12-18T08:35:07;5.10;;;4.07;;
21032;SDS011;10675;47.976;7.824;2022-12-18T08:37:33;4.47;;;3.20;;
21032;SDS011;10675;47.976;7.824;2022-12-18T08:39:59;6.30;;;3.77;;
21032;SDS011;10675;47.976;7.824;2022-12-18T08:42:25;7.73;;;3.97;;
21032;SDS011;10675;47.976;7.824;2022-12-18T08:45:09;6.03;;;3.97;;
21032;SDS011;10675;47.976;7.824;2022-12-18T08:47:34;11.37;;;4.57;;
21032;SDS011;10675;47.976;7.824;2022-12-18T08:50:00;8.73;;;4.67;;
21032;SDS011;10675;47.976;7.824;2022-12-18T08:52:26;7.90;;;4.10;;
21032;SDS011;10675;47.976;7.824;2022-12-18T08:54:51;11.50;;;4.47;;
21032;SDS011;10675;47.976;7.824;2022-12-18T08:57:17;10.23;;;3.83;;
21032;SDS011;10675;47.976;7.824;2022-12-18T08:59:43;14.90;;;4.30;;
21032;SDS011;10675;47.976;7.824;2022-12-18T09:02:10;11.60;;;5.87;;
21032;SDS011;10675;47.976;7.824;2022-12-18T09:04:36;8.17;;;4.37;;
21032;SDS011;10675;47.976;7.824;2022-12-18T09:07:01;15.20;;;5.00;;
21032;SDS011;10675;47.976;7.824;2022-12-18T09:09:27;10.90;;;4.40;;
21032;SDS011;10675;47.976;7.824;2022-12-18T09:11:52;11.37;;;4.00;;
21032;SDS011;10675;47.976;7.824;2022-12-18T09:14:19;4.03;;;3.47;;
21032;SDS011;10675;47.976;7.824;2022-12-18T09:16:45;13.23;;;5.90;;
21032;SDS011;10675;47.976;7.824;2022-12-18T09:19:10;8.57;;;4.17;;
21032;SDS011;10675;47.976;7.824;2022-12-18T09:21:36;7.67;;;5.23;;
21032;SDS011;10675;47.976;7.824;2022-12-18T09:24:02;7.13;;;5.00;;
21032;SDS011;10675;47.976;7.824;2022-12-18T09:26:29;9.67;;;5.03;;
21032;SDS011;10675;47.976;7.824;2022-12-18T09:28:55;12.50;;;5.73;;
21032;SDS011;10675;47.976;7.824;2022-12-18T09:31:22;10.90;;;5.90;;
21032;SDS011;10675;47.976;7.824;2022-12-18T09:33:49;8.30;;;5.07;;
21032;SDS011;10675;47.976;7.824;2022-12-18T09:36:15;8.67;;;4.40;;
21032;SDS011;10675;47.976;7.824;2022-12-18T09:38:42;7.53;;;4.87;;
21032;SDS011;10675;47.976;7.824;2022-12-18T09:43:44;10.20;;;5.40;;
21032;SDS011;10675;47.976;7.824;2022-12-18T09:46:17;11.73;;;5.43;;
21032;SDS011;10675;47.976;7.824;2022-12-18T09:48:50;9.80;;;4.60;;
21032;SDS011;10675;47.976;7.824;2022-12-18T09:51:24;13.20;;;5.20;;
21032;SDS011;10675;47.976;7.824;2022-12-18T09:53:54;9.50;;;5.47;;
21032;SDS011;10675;47.976;7.824;2022-12-18T09:56:23;13.00;;;6.57;;
21032;SDS011;10675;47.976;7.824;2022-12-18T09:59:00;10.10;;;5.40;;
21032;SDS011;10675;47.976;7.824;2022-12-18T10:01:28;9.23;;;5.53;;
21032;SDS011;10675;47.976;7.824;2022-12-18T10:03:55;14.40;;;6.87;;
21032;SDS011;10675;47.976;7.824;2022-12-18T10:09:07;8.60;;;6.33;;
21032;SDS011;10675;47.976;7.824;2022-12-18T10:11:48;8.17;;;5.00;;
21032;SDS011;10675;47.976;7.824;2022-12-18T10:14:47;14.53;;;6.77;;
21032;SDS011;10675;47.976;7.824;2022-12-18T10:20:27;14.73;;;6.17;;
21032;SDS011;10675;47.976;7.824;2022-12-18T10:28:18;11.27;;;6.73;;
21032;SDS011;10675;47.976;7.824;2022-12-18T10:30:45;15.53;;;5.50;;
21032;SDS011;10675;47.976;7.824;2022-12-18T10:33:15;12.40;;;6.80;;
21032;SDS011;10675;47.976;7.824;2022-12-18T10:35:43;16.30;;;7.57;;
21032;SDS011;10675;47.976;7.824;2022-12-18T10:40:49;14.37;;;6.97;;
21032;SDS011;10675;47.976;7.824;2022-12-18T10:43:33;13.23;;;6.97;;
21032;SDS011;10675;47.976;7.824;2022-12-18T10:48:34;10.57;;;6.30;;
21032;SDS011;10675;47.976;7.824;2022-12-18T10:51:04;14.07;;;7.90;;
21032;SDS011;10675;47.976;7.824;2022-12-18T10:53:31;13.80;;;7.13;;
21032;SDS011;10675;47.976;7.824;2022-12-18T10:55:59;15.47;;;7.77;;
21032;SDS011;10675;47.976;7.824;2022-12-18T10:58:26;15.93;;;6.83;;
21032;SDS011;10675;47.976;7.824;2022-12-18T11:01:02;13.30;;;6.60;;
21032;SDS011;10675;47.976;7.824;2022-12-18T11:03:42;14.40;;;6.63;;
21032;SDS011;10675;47.976;7.824;2022-12-18T11:06:10;9.97;;;6.20;;
21032;SDS011;10675;47.976;7.824;2022-12-18T11:08:38;15.43;;;7.47;;
21032;SDS011;10675;47.976;7.824;2022-12-18T11:11:04;11.33;;;6.83;;
21032;SDS011;10675;47.976;7.824;2022-12-18T11:16:30;15.73;;;7.23;;
21032;SDS011;10675;47.976;7.824;2022-12-18T11:21:52;13.17;;;6.57;;
21032;SDS011;10675;47.976;7.824;2022-12-18T11:24:34;12.37;;;7.70;;
21032;SDS011;10675;47.976;7.824;2022-12-18T11:27:05;13.30;;;6.90;;
21032;SDS011;10675;47.976;7.824;2022-12-18T11:29:40;13.27;;;7.67;;
21032;SDS011;10675;47.976;7.824;2022-12-18T11:35:10;13.37;;;6.73;;
21032;SDS011;10675;47.976;7.824;2022-12-18T11:37:44;15.30;;;6.33;;
21032;SDS011;10675;47.976;7.824;2022-12-18T11:40:15;14.90;;;6.83;;
21032;SDS011;10675;47.976;7.824;2022-12-18T11:45:28;16.53;;;7.27;;
21032;SDS011;10675;47.976;7.824;2022-12-18T11:48:02;13.73;;;8.40;;
21032;SDS011;10675;47.976;7.824;2022-12-18T11:50:45;13.67;;;6.97;;
21032;SDS011;10675;47.976;7.824;2022-12-18T11:53:15;13.80;;;6.17;;
21032;SDS011;10675;47.976;7.824;2022-12-18T11:55:44;14.53;;;7.27;;
21032;SDS011;10675;47.976;7.824;2022-12-18T12:01:18;11.63;;;6.97;;
21032;SDS011;10675;47.976;7.824;2022-12-18T12:07:07;11.73;;;6.60;;
21032;SDS011;10675;47.976;7.824;2022-12-18T12:26:04;17.17;;;7.33;;
21032;SDS011;10675;47.976;7.824;2022-12-18T12:34:38;18.20;;;8.10;;
21032;SDS011;10675;47.976;7.824;2022-12-18T12:39:56;11.70;;;6.93;;
21032;SDS011;10675;47.976;7.824;2022-12-18T12:42:31;16.90;;;8.57;;
21032;SDS011;10675;47.976;7.824;2022-12-18T12:45:28;16.93;;;8.80;;
21032;SDS011;10675;47.976;7.824;2022-12-18T12:47:59;13.23;;;7.93;;
21032;SDS011;10675;47.976;7.824;2022-12-18T12:50:28;14.73;;;8.30;;
21032;SDS011;10675;47.976;7.824;2022-12-18T12:52:59;17.43;;;8.30;;
21032;SDS011;10675;47.976;7.824;2022-12-18T12:55:30;15.80;;;8.00;;
21032;SDS011;10675;47.976;7.824;2022-12-18T12:58:17;16.90;;;7.20;;
21032;SDS011;10675;47.976;7.824;2022-12-18T13:03:37;15.97;;;7.40;;
21032;SDS011;10675;47.976;7.824;2022-12-18T13:06:12;18.40;;;8.17;;
21032;SDS011;10675;47.976;7.824;2022-12-18T13:09:04;25.60;;;7.60;;
21032;SDS011;10675;47.976;7.824;2022-12-18T13:11:31;16.20;;;7.60;;
21032;SDS011;10675;47.976;7.824;2022-12-18T13:14:25;16.47;;;6.97;;
21032;SDS011;10675;47.976;7.824;2022-12-18T13:19:50;13.67;;;7.73;;
21032;SDS011;10675;47.976;7.824;2022-12-18T13:24:59;12.70;;;7.60;;
21032;SDS011;10675;47.976;7.824;2022-12-18T13:30:52;16.10;;;8.10;;
21032;SDS011;10675;47.976;7.824;2022-12-18T13:41:04;18.37;;;8.37;;
21032;SDS011;10675;47.976;7.824;2022-12-18T13:46:19;14.17;;;7.63;;
21032;SDS011;10675;47.976;7.824;2022-12-18T13:49:02;12.90;;;7.37;;
21032;SDS011;10675;47.976;7.824;2022-12-18T13:51:50;14.00;;;6.73;;
21032;SDS011;10675;47.976;7.824;2022-12-18T13:54:34;10.90;;;6.53;;
21032;SDS011;10675;47.976;7.824;2022-12-18T13:57:01;16.97;;;7.50;;
21032;SDS011;10675;47.976;7.824;2022-12-18T13:59:34;25.33;;;10.40;;
21032;SDS011;10675;47.976;7.824;2022-12-18T14:02:14;10.93;;;7.03;;
21032;SDS011;10675;47.976;7.824;2022-12-18T14:04:47;16.90;;;7.90;;
21032;SDS011;10675;47.976;7.824;2022-12-18T14:09:51;14.90;;;7.60;;
21032;SDS011;10675;47.976;7.824;2022-12-18T14:12:20;16.47;;;7.93;;
21032;SDS011;10675;47.976;7.824;2022-12-18T14:15:21;14.10;;;7.10;;
21032;SDS011;10675;47.976;7.824;2022-12-18T14:17:52;17.47;;;8.07;;
21032;SDS011;10675;47.976;7.824;2022-12-18T14:20:20;15.13;;;7.30;;
21032;SDS011;10675;47.976;7.824;2022-12-18T14:22:46;17.77;;;7.43;;
21032;SDS011;10675;47.976;7.824;2022-12-18T14:27:47;12.40;;;7.20;;
21032;SDS011;10675;47.976;7.824;2022-12-18T14:30:25;12.90;;;7.97;;
21032;SDS011;10675;47.976;7.824;2022-12-18T14:32:59;16.27;;;7.67;;
21032;SDS011;10675;47.976;7.824;2022-12-18T14:35:26;15.23;;;7.33;;
21032;SDS011;10675;47.976;7.824;2022-12-18T14:37:51;15.00;;;7.27;;
21032;SDS011;10675;47.976;7.824;2022-12-18T14:40:17;14.63;;;7.80;;
21032;SDS011;10675;47.976;7.824;2022-12-18T14:42:43;17.23;;;7.80;;
21032;SDS011;10675;47.976;7.824;2022-12-18T14:45:31;14.53;;;7.30;;
21032;SDS011;10675;47.976;7.824;2022-12-18T14:48:05;23.27;;;9.63;;
21032;SDS011;10675;47.976;7.824;2022-12-18T14:50:39;15.13;;;7.43;;
21032;SDS011;10675;47.976;7.824;2022-12-18T14:53:04;14.83;;;7.73;;
21032;SDS011;10675;47.976;7.824;2022-12-18T14:55:31;15.43;;;7.13;;
21032;SDS011;10675;47.976;7.824;2022-12-18T14:57:57;16.90;;;8.77;;
21032;SDS011;10675;47.976;7.824;2022-12-18T15:00:24;11.87;;;7.17;;
21032;SDS011;10675;47.976;7.824;2022-12-18T15:02:55;22.43;;;7.57;;
21032;SDS011;10675;47.976;7.824;2022-12-18T15:05:25;13.00;;;7.33;;
21032;SDS011;10675;47.976;7.824;2022-12-18T15:07:56;13.60;;;7.93;;
21032;SDS011;10675;47.976;7.824;2022-12-18T15:10:27;19.03;;;7.83;;
21032;SDS011;10675;47.976;7.824;2022-12-18T15:18:02;18.20;;;9.03;;
21032;SDS011;10675;47.976;7.824;2022-12-18T15:20:56;17.83;;;9.10;;
21032;SDS011;10675;47.976;7.824;2022-12-18T15:28:38;20.83;;;9.30;;
21032;SDS011;10675;47.976;7.824;2022-12-18T15:33:41;17.03;;;8.43;;
21032;SDS011;10675;47.976;7.824;2022-12-18T15:36:12;24.40;;;8.30;;
21032;SDS011;10675;47.976;7.824;2022-12-18T15:38:40;17.53;;;8.37;;
21032;SDS011;10675;47.976;7.824;2022-12-18T15:41:06;18.47;;;9.27;;
21032;SDS011;10675;47.976;7.824;2022-12-18T15:43:38;16.80;;;8.43;;
21032;SDS011;10675;47.976;7.824;2022-12-18T15:46:04;19.57;;;9.90;;
21032;SDS011;10675;47.976;7.824;2022-12-18T15:48:34;15.37;;;8.10;;
21032;SDS011;10675;47.976;7.824;2022-12-18T15:51:02;16.07;;;8.80;;
21032;SDS011;10675;47.976;7.824;2022-12-18T15:53:29;17.50;;;9.03;;
21032;SDS011;10675;47.976;7.824;2022-12-18T15:55:57;22.60;;;9.83;;
21032;SDS011;10675;47.976;7.824;2022-12-18T15:58:41;17.90;;;9.00;;
21032;SDS011;10675;47.976;7.824;2022-12-18T16:01:07;22.10;;;10.37;;
21032;SDS011;10675;47.976;7.824;2022-12-18T16:03:35;25.73;;;12.53;;
21032;SDS011;10675;47.976;7.824;2022-12-18T16:06:00;19.40;;;10.23;;
21032;SDS011;10675;47.976;7.824;2022-12-18T16:08:27;22.10;;;9.83;;
21032;SDS011;10675;47.976;7.824;2022-12-18T16:10:54;19.70;;;10.70;;
21032;SDS011;10675;47.976;7.824;2022-12-18T16:13:20;19.33;;;10.67;;
21032;SDS011;10675;47.976;7.824;2022-12-18T16:15:46;22.17;;;10.80;;
21032;SDS011;10675;47.976;7.824;2022-12-18T16:18:12;19.03;;;10.57;;
21032;SDS011;10675;47.976;7.824;2022-12-18T16:20:37;21.40;;;9.30;;
21032;SDS011;10675;47.976;7.824;2022-12-18T16:23:04;22.63;;;11.40;;
21032;SDS011;10675;47.976;7.824;2022-12-18T16:25:29;27.60;;;11.20;;
21032;SDS011;10675;47.976;7.824;2022-12-18T16:27:55;20.90;;;11.57;;
21032;SDS011;10675;47.976;7.824;2022-12-18T16:30:22;24.20;;;11.97;;
21032;SDS011;10675;47.976;7.824;2022-12-18T16:32:51;21.30;;;11.30;;
21032;SDS011;10675;47.976;7.824;2022-12-18T16:35:20;20.93;;;11.40;;
21032;SDS011;10675;47.976;7.824;2022-12-18T16:37:46;16.17;;;10.23;;
21032;SDS011;10675;47.976;7.824;2022-12-18T16:40:13;21.33;;;10.10;;
21032;SDS011;10675;47.976;7.824;2022-12-18T16:42:41;22.53;;;12.13;;
21032;SDS011;10675;47.976;7.824;2022-12-18T16:45:09;22.20;;;10.87;;
21032;SDS011;10675;47.976;7.824;2022-12-18T16:47:37;21.13;;;11.83;;
21032;SDS011;10675;47.976;7.824;2022-12-18T16:50:03;20.67;;;11.37;;
21032;SDS011;10675;47.976;7.824;2022-12-18T16:52:30;26.93;;;11.10;;
21032;SDS011;10675;47.976;7.824;2022-12-18T16:54:55;23.53;;;12.33;;
21032;SDS011;10675;47.976;7.824;2022-12-18T16:57:21;28.70;;;13.17;;
21032;SDS011;10675;47.976;7.824;2022-12-18T16:59:47;24.43;;;10.90;;